Airfield :
LOGIN :

Register | Disclaimer

   EN    FR    IT 

 










Legend :    VFR   Marginal VFR   IFR   Intensive IFR   Very Intensive IFR
Visi :
Ceiling :
>= 8 km
>= 3000ft
5 to 8 km
1000 to 3000 ft
1500m to 5 km
500 to 1000 ft
800 to 1500m
200 to 500 ft
< 800m
< 200 ft
Symbols :   Thunderstorms  Fog  Heavy snow  Heavy precipitations  Wind > 20 kt
SIGMETs :     Misc.  Thunderstorms  Icing  Turbulence  Mountain Waves  Volcanic Ashes






- Airport Elevation : 158 ft
- IATA code : QAR


EHDL - Deelen Airbase

CURRENT METAR :
  • 271425Z AUTO 06006KT 350V110 9999 DZ SCT006 BKN007 BKN008 03/02 Q0995 YLO

EXPIRED METARs :
  • 271355Z AUTO 08004KT 010V160 9999 -RA SCT006 BKN007 BKN009 03/02 Q0995 RERA REDZ YLO
  • 271325Z AUTO 11007KT 030V160 9999 -RADZ FEW006 SCT008 BKN020 03/02 Q0995 GRN
  • 271255Z AUTO 11007KT 030V170 9999 DZ FEW006 SCT008 BKN009 03/02 Q0995 GRN
  • 271225Z AUTO 12007KT 060V220 9999 DZRA FEW006 SCT007 BKN008 03/02 Q0996 GRN
  • 271155Z AUTO 15006KT 100V200 7000 -RADZ FEW007 SCT010 BKN020 03/02 Q0996 GRN

Expired Forecast.



MET'MAP, your aeronautical weather chart ! - Copyright ORBIFLY December 2007 - Disclaimer

ORBIFLY MET'MAP TEAM :

Programming & Development : Alexandra Zaïnal
Concept & original design : Baudouin d'Aumeries
Assistance for programming : Marc-Olivier Méhu
Technical & hardware support : Manuel Goepfert

Contact : metmap@orbifly.com




SOURCES & CREDITS :

   NOAA